createdAt,value
2024-01-07T00:01:16.805Z,6.40
2024-01-07T00:03:45.413Z,6.40
2024-01-07T00:06:13.751Z,6.43
2024-01-07T00:08:43.848Z,6.45
2024-01-07T00:11:12.435Z,6.52
2024-01-07T00:13:40.935Z,6.59
2024-01-07T00:16:09.300Z,6.62
2024-01-07T00:18:37.915Z,6.64
2024-01-07T00:21:07.014Z,6.63
2024-01-07T00:23:35.543Z,6.63
2024-01-07T00:26:08.322Z,6.62
2024-01-07T00:28:36.833Z,6.61
2024-01-07T00:31:05.736Z,6.61
2024-01-07T00:33:34.589Z,6.59
2024-01-07T00:36:03.900Z,6.57
2024-01-07T00:38:32.241Z,6.61
2024-01-07T00:41:00.837Z,6.64
2024-01-07T00:43:31.840Z,6.63
2024-01-07T00:46:00.921Z,6.57
2024-01-07T00:48:29.411Z,6.55
2024-01-07T00:50:58.004Z,6.54
2024-01-07T00:53:26.402Z,6.56
2024-01-07T00:55:54.883Z,6.56
2024-01-07T00:58:23.225Z,6.59
2024-01-07T01:00:55.620Z,6.67
2024-01-07T01:03:24.072Z,6.71
2024-01-07T01:05:52.933Z,6.86
2024-01-07T01:08:21.381Z,6.99
2024-01-07T01:10:49.979Z,7.08
2024-01-07T01:13:18.458Z,7.12
2024-01-07T01:15:47.288Z,7.12
2024-01-07T01:18:17.243Z,7.13
2024-01-07T01:20:45.933Z,7.20
2024-01-07T01:23:14.549Z,7.30
2024-01-07T01:25:43.101Z,7.39
2024-01-07T01:28:12.007Z,7.46
2024-01-07T01:30:40.605Z,7.43
2024-01-07T01:33:09.212Z,7.39
2024-01-07T01:35:39.212Z,7.35
2024-01-07T01:38:07.568Z,7.28
2024-01-07T01:40:36.140Z,7.21
2024-01-07T01:43:04.544Z,7.13
2024-01-07T01:45:33.301Z,7.09
2024-01-07T01:48:03.219Z,7.02
2024-01-07T01:50:30.893Z,7.01
2024-01-07T01:53:00.808Z,6.99
2024-01-07T01:55:29.446Z,6.96
2024-01-07T01:58:01.120Z,6.93
2024-01-07T02:00:29.880Z,6.87
2024-01-07T02:02:59.455Z,6.85
2024-01-07T02:05:28.066Z,6.80
2024-01-07T02:07:57.701Z,6.75
2024-01-07T02:10:28.197Z,6.74
2024-01-07T02:12:56.668Z,6.71
2024-01-07T02:15:25.236Z,6.68
2024-01-07T02:17:53.859Z,6.70
2024-01-07T02:20:22.387Z,6.68
2024-01-07T02:22:51.153Z,6.66
2024-01-07T02:25:20.943Z,6.60
2024-01-07T02:27:50.115Z,6.49
2024-01-07T02:30:19.503Z,6.46
2024-01-07T02:32:48.235Z,6.49
2024-01-07T02:35:16.778Z,6.52
2024-01-07T02:37:45.158Z,6.53
2024-01-07T02:40:14.293Z,6.52
2024-01-07T02:42:44.092Z,6.47
2024-01-07T02:45:12.636Z,6.44
2024-01-07T02:47:41.080Z,6.41
2024-01-07T02:50:10.087Z,6.40
2024-01-07T02:52:38.438Z,6.39
2024-01-07T02:55:07.455Z,6.40
2024-01-07T02:57:36.204Z,6.39
2024-01-07T03:00:07.536Z,6.36
2024-01-07T03:02:36.135Z,6.32
2024-01-07T03:05:04.929Z,6.26
2024-01-07T03:07:33.650Z,6.23
2024-01-07T03:10:02.046Z,6.27
2024-01-07T03:12:30.474Z,6.30
2024-01-07T03:14:58.871Z,6.30
2024-01-07T03:17:28.871Z,6.31
2024-01-07T03:19:57.326Z,6.29
2024-01-07T03:26:17.011Z,6.20
2024-01-07T03:28:45.676Z,6.17
2024-01-07T03:31:16.302Z,6.21
2024-01-07T03:33:46.535Z,6.28
2024-01-07T03:36:15.951Z,6.36
2024-01-07T03:38:44.694Z,6.41
2024-01-07T03:41:19.504Z,6.43
2024-01-07T03:43:49.807Z,6.39
2024-01-07T03:46:18.764Z,6.33
2024-01-07T03:48:48.812Z,6.24
2024-01-07T03:51:17.277Z,6.16
2024-01-07T03:53:45.627Z,6.13
2024-01-07T03:56:14.049Z,6.11
2024-01-07T03:58:42.347Z,6.07
2024-01-07T04:01:10.857Z,6.02
2024-01-07T04:03:40.662Z,5.97
2024-01-07T04:06:10.749Z,5.92
2024-01-07T04:08:39.303Z,5.84
2024-01-07T04:11:07.592Z,5.79
2024-01-07T04:13:36.024Z,5.75
2024-01-07T04:16:05.380Z,5.76
2024-01-07T04:18:33.937Z,5.79
2024-01-07T04:21:02.313Z,5.79
2024-01-07T04:23:32.169Z,5.71
2024-01-07T04:26:00.486Z,5.64
2024-01-07T04:28:28.894Z,5.64
2024-01-07T04:30:57.261Z,5.62
2024-01-07T04:33:25.727Z,5.59
2024-01-07T04:35:54.039Z,5.56
2024-01-07T04:38:22.415Z,5.52
2024-01-07T04:40:52.171Z,5.52
2024-01-07T04:43:20.752Z,5.51
2024-01-07T04:45:49.477Z,5.48
2024-01-07T04:48:17.934Z,5.48
2024-01-07T04:50:46.280Z,5.45
2024-01-07T04:53:14.631Z,5.42
2024-01-07T04:55:42.987Z,5.37
2024-01-07T04:58:12.912Z,5.30
2024-01-07T05:00:41.274Z,5.24
2024-01-07T05:03:09.659Z,5.18
2024-01-07T05:05:39.582Z,5.12
2024-01-07T05:08:08.213Z,5.06
2024-01-07T05:10:36.508Z,5.02
2024-01-07T05:13:07.976Z,4.97
2024-01-07T05:15:37.962Z,4.90
2024-01-07T05:18:10.001Z,4.87
2024-01-07T05:20:38.633Z,4.79
2024-01-07T05:23:07.046Z,4.76
2024-01-07T05:25:35.361Z,4.72
2024-01-07T05:28:03.758Z,4.68
2024-01-07T05:30:32.251Z,4.70
2024-01-07T05:33:02.174Z,4.73
2024-01-07T05:35:30.610Z,4.77
2024-01-07T05:37:58.917Z,4.80
2024-01-07T05:40:27.369Z,4.84
2024-01-07T05:42:55.668Z,4.87
2024-01-07T05:45:24.134Z,4.90
2024-01-07T05:47:52.660Z,4.92
2024-01-07T05:50:22.512Z,4.93
2024-01-07T05:52:50.856Z,4.93
2024-01-07T05:55:19.286Z,4.96
2024-01-07T05:57:47.758Z,4.99
2024-01-07T06:00:17.060Z,5.04
2024-01-07T06:02:45.581Z,5.03
2024-01-07T06:05:14.155Z,5.04
2024-01-07T06:07:43.984Z,5.03
2024-01-07T06:10:12.555Z,5.04
2024-01-07T06:12:41.045Z,5.01
2024-01-07T06:15:10.329Z,4.98
2024-01-07T06:17:38.766Z,5.01
2024-01-07T06:20:09.565Z,4.99
2024-01-07T06:22:37.941Z,5.00
2024-01-07T06:25:08.986Z,5.04
2024-01-07T06:27:37.422Z,5.06
2024-01-07T06:30:07.007Z,5.07
2024-01-07T06:32:35.559Z,5.11
2024-01-07T06:35:05.849Z,5.14
2024-01-07T06:37:34.167Z,5.15
2024-01-07T06:40:02.578Z,5.13
2024-01-07T06:42:32.348Z,5.08
2024-01-07T06:45:00.794Z,5.04
2024-01-07T06:47:29.287Z,5.01
2024-01-07T06:49:57.681Z,4.99
2024-01-07T06:52:26.146Z,4.97
2024-01-07T06:54:54.545Z,4.93
2024-01-07T06:57:22.979Z,4.91
2024-01-07T06:59:53.076Z,4.94
2024-01-07T07:02:23.112Z,4.95
2024-01-07T07:04:52.720Z,4.93
2024-01-07T07:07:21.220Z,4.91
2024-01-07T07:09:49.615Z,4.86
2024-01-07T07:12:18.000Z,4.83
2024-01-07T07:14:46.399Z,4.82
2024-01-07T07:17:16.296Z,4.83
2024-01-07T07:19:46.025Z,4.80
2024-01-07T07:22:14.958Z,4.74
2024-01-07T07:24:43.848Z,4.68
2024-01-07T07:27:12.249Z,4.65
2024-01-07T07:29:40.518Z,4.61
2024-01-07T07:32:09.639Z,4.58
2024-01-07T07:34:39.587Z,4.56
2024-01-07T07:37:07.991Z,4.53
2024-01-07T07:39:36.349Z,4.50
2024-01-07T07:42:05.157Z,4.53
2024-01-07T07:44:34.759Z,4.55
2024-01-07T07:47:03.149Z,4.59
2024-01-07T07:49:31.532Z,4.61
2024-01-07T07:52:01.608Z,4.64
2024-01-07T07:54:30.474Z,4.62
2024-01-07T07:56:59.485Z,4.61
2024-01-07T07:59:27.737Z,4.61
2024-01-07T08:01:56.381Z,4.65
2024-01-07T08:04:24.872Z,4.65
2024-01-07T08:06:53.911Z,4.69
2024-01-07T08:09:26.298Z,4.74
2024-01-07T08:11:54.511Z,4.73
2024-01-07T08:14:22.976Z,4.79
2024-01-07T08:16:51.275Z,4.86
2024-01-07T08:19:20.992Z,4.91
2024-01-07T08:21:49.655Z,4.96
2024-01-07T08:24:18.144Z,5.01
2024-01-07T08:26:50.158Z,5.05
2024-01-07T08:29:18.723Z,5.08
2024-01-07T08:31:47.546Z,5.13
2024-01-07T08:34:16.430Z,5.17
2024-01-07T08:36:44.988Z,5.22
2024-01-07T08:39:13.704Z,5.28
2024-01-07T08:41:42.961Z,5.37
2024-01-07T08:44:12.767Z,5.42
2024-01-07T08:46:44.747Z,5.47
2024-01-07T08:49:21.985Z,5.52
2024-01-07T08:51:53.328Z,5.62
2024-01-07T08:55:01.988Z,5.97
2024-01-07T08:57:33.263Z,6.61
2024-01-07T09:00:06.051Z,6.92
2024-01-07T09:02:34.551Z,7.48
2024-01-07T09:05:09.096Z,8.29
2024-01-07T09:07:38.974Z,9.13
2024-01-07T09:33:29.202Z,15.35
2024-01-07T09:36:06.305Z,15.70
2024-01-07T09:38:43.224Z,16.01
2024-01-07T09:41:11.787Z,16.26
2024-01-07T09:43:40.251Z,16.42
2024-01-07T09:49:01.994Z,16.54
2024-01-07T09:51:37.473Z,16.65
2024-01-07T09:54:08.940Z,16.72
2024-01-07T09:56:43.198Z,16.88
2024-01-07T09:59:23.423Z,16.91
2024-01-07T10:01:55.590Z,16.95
2024-01-07T10:04:26.545Z,17.03
2024-01-07T10:06:56.480Z,16.57
2024-01-07T10:09:26.839Z,15.70
2024-01-07T10:11:55.393Z,14.83
2024-01-07T10:14:25.845Z,14.35
2024-01-07T10:16:54.514Z,14.16
2024-01-07T10:19:24.545Z,14.36
2024-01-07T10:22:04.792Z,14.70
2024-01-07T10:24:41.137Z,14.90
2024-01-07T10:27:10.328Z,14.82
2024-01-07T10:29:39.149Z,14.43
2024-01-07T10:32:08.045Z,14.01
2024-01-07T10:34:37.975Z,13.66
2024-01-07T10:37:12.808Z,13.17
2024-01-07T10:39:41.282Z,12.84
2024-01-07T10:42:12.065Z,12.55
2024-01-07T10:44:41.002Z,12.15
2024-01-07T10:47:13.148Z,11.79
2024-01-07T10:49:43.748Z,11.53
2024-01-07T10:52:14.446Z,11.33
2024-01-07T10:54:46.821Z,11.13
2024-01-07T10:57:18.881Z,10.99
2024-01-07T10:59:50.713Z,10.87
2024-01-07T11:02:28.264Z,10.78
2024-01-07T11:05:09.336Z,10.72
2024-01-07T11:07:47.430Z,10.73
2024-01-07T11:10:21.795Z,10.69
2024-01-07T11:12:56.786Z,10.61
2024-01-07T11:15:56.570Z,10.49
2024-01-07T11:18:25.934Z,10.46
2024-01-07T11:20:56.044Z,10.51
2024-01-07T11:23:34.429Z,10.53
2024-01-07T11:26:04.528Z,10.49
2024-01-07T11:28:46.456Z,10.31
2024-01-07T11:31:16.078Z,10.11
2024-01-07T11:33:46.672Z,10.06
2024-01-07T11:36:18.432Z,9.94
2024-01-07T11:38:57.659Z,9.95
2024-01-07T11:41:34.789Z,9.89
2024-01-07T11:44:06.993Z,9.78
2024-01-07T11:46:44.177Z,9.70
2024-01-07T11:49:17.820Z,9.74
2024-01-07T11:51:47.742Z,9.79
2024-01-07T11:54:19.416Z,9.84
2024-01-07T11:56:49.305Z,9.88
2024-01-07T11:59:17.877Z,9.94
2024-01-07T12:01:46.378Z,9.99
2024-01-07T12:04:14.996Z,9.97
2024-01-07T12:06:43.907Z,10.01
2024-01-07T12:09:15.404Z,9.99
2024-01-07T12:11:46.471Z,10.01
2024-01-07T12:14:30.648Z,10.04
2024-01-07T12:16:59.504Z,10.12
2024-01-07T12:19:28.089Z,10.13
2024-01-07T12:22:04.799Z,10.17
2024-01-07T12:24:34.882Z,10.21
2024-01-07T12:27:08.751Z,10.21
2024-01-07T12:29:38.552Z,10.25
2024-01-07T12:32:10.678Z,10.29
2024-01-07T12:34:39.828Z,10.31
2024-01-07T12:37:16.781Z,10.27
2024-01-07T12:39:45.236Z,10.23
2024-01-07T12:42:15.373Z,10.24
2024-01-07T12:44:44.072Z,10.25
2024-01-07T12:47:12.532Z,10.26
2024-01-07T12:49:41.041Z,10.30
2024-01-07T12:52:10.394Z,10.35
2024-01-07T12:54:43.302Z,10.35
2024-01-07T12:57:11.905Z,10.37
2024-01-07T13:00:08.517Z,10.34
2024-01-07T13:02:37.222Z,10.44
2024-01-07T13:05:06.505Z,10.51
2024-01-07T13:07:35.082Z,10.57
2024-01-07T13:10:03.771Z,10.64
2024-01-07T13:12:40.366Z,10.75
2024-01-07T13:15:18.346Z,10.74
2024-01-07T13:17:47.308Z,10.66
2024-01-07T13:20:23.604Z,10.53
2024-01-07T13:22:52.536Z,10.29
2024-01-07T13:25:24.134Z,10.23
2024-01-07T13:27:53.050Z,10.18
2024-01-07T13:30:23.395Z,10.22
2024-01-07T13:32:53.164Z,10.25
2024-01-07T13:35:22.748Z,10.20
2024-01-07T13:37:52.639Z,10.28
2024-01-07T13:40:21.497Z,10.39
2024-01-07T13:42:52.495Z,10.43
2024-01-07T13:45:24.403Z,10.52
2024-01-07T13:47:53.505Z,10.69
2024-01-07T13:50:21.853Z,10.88
2024-01-07T13:52:51.233Z,11.01
2024-01-07T13:55:19.738Z,10.93
2024-01-07T13:57:48.253Z,10.73
2024-01-07T14:00:20.115Z,10.66
2024-01-07T14:02:51.490Z,10.59
2024-01-07T14:05:20.794Z,10.64
2024-01-07T14:07:49.506Z,10.63
2024-01-07T14:10:20.078Z,10.48
2024-01-07T14:12:49.456Z,10.31
2024-01-07T14:15:19.648Z,10.17
2024-01-07T14:17:50.356Z,10.06
2024-01-07T14:20:19.358Z,10.05
2024-01-07T14:22:47.634Z,10.17
2024-01-07T14:25:16.323Z,10.34
2024-01-07T14:27:45.723Z,10.34
2024-01-07T14:30:15.242Z,10.20
2024-01-07T14:33:15.150Z,9.90
2024-01-07T14:35:43.656Z,9.69
2024-01-07T14:38:12.085Z,9.53
2024-01-07T14:40:42.294Z,9.39
2024-01-07T14:43:10.676Z,9.31
2024-01-07T14:45:39.038Z,9.39
2024-01-07T14:48:07.050Z,9.54
2024-01-07T14:50:41.802Z,9.64
2024-01-07T14:53:10.850Z,9.69
2024-01-07T14:55:39.158Z,9.71
2024-01-07T14:58:07.524Z,9.76
2024-01-07T15:00:36.304Z,9.72
2024-01-07T15:03:05.748Z,9.72
2024-01-07T15:05:34.143Z,9.78
2024-01-07T15:08:04.450Z,9.69
2024-01-07T15:10:33.819Z,9.70
2024-01-07T15:13:07.198Z,9.74
2024-01-07T15:15:43.150Z,9.74
2024-01-07T15:18:15.869Z,9.73
2024-01-07T15:20:44.249Z,9.67
2024-01-07T15:23:14.005Z,9.67
2024-01-07T15:25:42.339Z,9.58
2024-01-07T15:28:10.821Z,9.61
2024-01-07T15:30:39.364Z,9.60
2024-01-07T15:33:08.197Z,9.56
2024-01-07T15:35:36.573Z,9.48
2024-01-07T15:38:05.346Z,9.33
2024-01-07T15:40:35.002Z,9.19
2024-01-07T15:43:03.422Z,9.05
2024-01-07T15:45:31.787Z,8.94
2024-01-07T15:48:00.310Z,8.81
2024-01-07T15:50:28.939Z,8.69
2024-01-07T15:53:00.737Z,8.62
2024-01-07T15:55:30.389Z,8.57
2024-01-07T15:58:00.368Z,8.50
2024-01-07T16:00:28.964Z,8.38
2024-01-07T16:02:59.520Z,8.27
2024-01-07T16:05:29.092Z,8.23
2024-01-07T16:07:57.809Z,8.21
2024-01-07T16:10:26.570Z,8.21
2024-01-07T16:12:55.148Z,8.17
2024-01-07T16:15:25.021Z,8.12
2024-01-07T16:17:55.365Z,8.03
2024-01-07T16:20:23.980Z,7.97
2024-01-07T16:22:52.283Z,7.89
2024-01-07T16:25:20.669Z,7.84
2024-01-07T16:27:49.763Z,7.78
2024-01-07T16:30:18.250Z,7.69
2024-01-07T16:32:50.118Z,7.60
2024-01-07T16:35:18.728Z,7.51
2024-01-07T16:37:47.009Z,7.43
2024-01-07T16:40:15.744Z,7.37
2024-01-07T16:42:44.977Z,7.40
2024-01-07T16:45:15.277Z,7.40
2024-01-07T16:47:43.848Z,7.45
2024-01-07T16:50:21.984Z,7.45
2024-01-07T16:52:54.691Z,7.41
2024-01-07T16:55:23.206Z,7.39
2024-01-07T16:57:51.758Z,7.40
2024-01-07T17:00:21.717Z,7.43
2024-01-07T17:02:50.576Z,7.44
2024-01-07T17:05:21.519Z,7.45
2024-01-07T17:07:50.144Z,7.38
2024-01-07T17:10:18.661Z,7.34
2024-01-07T17:12:47.065Z,7.29
2024-01-07T17:15:16.038Z,7.33
2024-01-07T17:17:44.560Z,7.40
2024-01-07T17:20:14.126Z,7.45
2024-01-07T17:22:44.524Z,7.48
2024-01-07T17:25:13.038Z,7.53
2024-01-07T17:27:41.453Z,7.59
2024-01-07T17:30:10.978Z,7.59
2024-01-07T17:32:39.427Z,7.55
2024-01-07T17:35:08.817Z,7.50
2024-01-07T17:37:37.967Z,7.39
2024-01-07T17:40:09.468Z,7.31
2024-01-07T17:42:37.928Z,7.31
2024-01-07T17:45:09.280Z,7.22
2024-01-07T17:47:37.805Z,7.21
2024-01-07T17:50:07.757Z,7.23
2024-01-07T17:52:36.302Z,7.23
2024-01-07T17:55:04.684Z,7.22
2024-01-07T17:57:36.712Z,7.16
2024-01-07T18:00:07.513Z,7.18
2024-01-07T18:02:40.061Z,7.13
2024-01-07T18:05:09.553Z,7.09
2024-01-07T18:07:38.030Z,7.03
2024-01-07T18:10:12.100Z,6.98
2024-01-07T18:13:19.416Z,6.96
2024-01-07T18:15:49.355Z,6.94
2024-01-07T18:18:17.885Z,6.93
2024-01-07T18:20:46.453Z,6.94
2024-01-07T18:23:16.166Z,6.94
2024-01-07T18:25:44.973Z,6.98
2024-01-07T18:28:13.602Z,6.98
2024-01-07T18:30:43.281Z,6.96
2024-01-07T18:33:14.266Z,6.97
2024-01-07T18:35:43.141Z,6.98
2024-01-07T18:38:11.833Z,6.99
2024-01-07T18:40:40.421Z,6.94
2024-01-07T18:43:11.435Z,6.93
2024-01-07T18:45:43.861Z,6.94
2024-01-07T18:48:14.289Z,6.91
2024-01-07T18:50:42.756Z,6.85
2024-01-07T18:53:11.181Z,6.85
2024-01-07T18:55:43.400Z,6.83
2024-01-07T18:58:11.806Z,6.80
2024-01-07T19:00:40.354Z,6.78
2024-01-07T19:03:09.366Z,6.76
2024-01-07T19:05:39.259Z,6.80
2024-01-07T19:08:07.941Z,6.77
2024-01-07T19:10:36.441Z,6.81
2024-01-07T19:13:06.185Z,6.82
2024-01-07T19:15:34.634Z,6.85
2024-01-07T19:18:03.052Z,6.90
2024-01-07T19:20:32.614Z,6.89
2024-01-07T19:23:02.905Z,6.91
2024-01-07T19:25:31.194Z,6.94
2024-01-07T19:27:59.723Z,6.94
2024-01-07T19:30:30.233Z,6.97
2024-01-07T19:32:59.126Z,6.97
2024-01-07T19:35:27.947Z,6.97
2024-01-07T19:37:59.132Z,6.99
2024-01-07T19:40:30.392Z,6.99
2024-01-07T19:42:59.040Z,6.99
2024-01-07T19:45:29.623Z,7.00
2024-01-07T19:47:58.760Z,7.04
2024-01-07T19:50:28.087Z,7.06
2024-01-07T19:52:56.738Z,7.07
2024-01-07T19:55:25.129Z,7.10
2024-01-07T19:57:54.918Z,7.11
2024-01-07T20:00:23.355Z,7.13
2024-01-07T20:02:55.586Z,7.12
2024-01-07T20:05:26.056Z,7.12
2024-01-07T20:07:54.692Z,7.13
2024-01-07T20:10:23.039Z,7.16
2024-01-07T20:12:51.438Z,7.17
2024-01-07T20:15:21.138Z,7.20
2024-01-07T20:17:49.611Z,7.18
2024-01-07T20:20:18.297Z,7.17
2024-01-07T20:22:46.703Z,7.18
2024-01-07T20:25:15.044Z,7.20
2024-01-07T20:27:43.421Z,7.21
2024-01-07T20:30:15.206Z,7.23
2024-01-07T20:32:45.317Z,7.23
2024-01-07T20:35:13.860Z,7.24
2024-01-07T20:37:43.219Z,7.24
2024-01-07T20:40:12.666Z,7.25
2024-01-07T20:42:44.250Z,7.26
2024-01-07T20:45:14.759Z,7.24
2024-01-07T20:47:46.483Z,7.23
2024-01-07T20:50:15.313Z,7.21
2024-01-07T20:52:43.704Z,7.19
2024-01-07T20:55:12.201Z,7.16
2024-01-07T20:57:40.587Z,7.13
2024-01-07T21:00:11.839Z,7.11
2024-01-07T21:02:40.366Z,7.09
2024-01-07T21:05:11.788Z,7.10
2024-01-07T21:07:40.201Z,7.10
2024-01-07T21:10:10.138Z,7.12
2024-01-07T21:12:38.846Z,7.07
2024-01-07T21:15:08.336Z,7.02
2024-01-07T21:17:42.064Z,6.96
2024-01-07T21:20:14.454Z,6.90
2024-01-07T21:22:46.428Z,6.91
2024-01-07T21:25:16.341Z,6.93
2024-01-07T21:27:45.411Z,6.93
2024-01-07T21:30:14.736Z,6.90
2024-01-07T21:32:43.707Z,6.96
2024-01-07T21:35:14.366Z,6.96
2024-01-07T21:37:43.030Z,6.97
2024-01-07T21:40:12.243Z,7.00
2024-01-07T21:42:41.019Z,6.99
2024-01-07T21:45:10.204Z,7.00
2024-01-07T21:47:39.044Z,6.98
2024-01-07T21:50:08.501Z,7.02
2024-01-07T21:52:38.405Z,6.92
2024-01-07T21:55:07.380Z,6.86
2024-01-07T21:57:35.672Z,6.84
2024-01-07T22:00:04.373Z,6.73
2024-01-07T22:02:38.985Z,6.72
2024-01-07T22:05:09.459Z,6.76
2024-01-07T22:07:39.706Z,6.75
2024-01-07T22:10:09.120Z,6.74
2024-01-07T22:12:37.495Z,6.72
2024-01-07T22:15:07.403Z,6.78
2024-01-07T22:17:36.709Z,6.80
2024-01-07T22:20:06.364Z,6.82
2024-01-07T22:22:34.891Z,6.80
2024-01-07T22:25:05.106Z,6.80
2024-01-07T22:27:34.900Z,6.83
2024-01-07T22:30:04.182Z,6.83
2024-01-07T22:32:32.691Z,6.84
2024-01-07T22:35:01.673Z,6.87
2024-01-07T22:37:30.118Z,6.91
2024-01-07T22:39:58.710Z,6.92
2024-01-07T22:42:28.578Z,6.96
2024-01-07T22:44:56.927Z,7.00
2024-01-07T22:47:25.380Z,7.02
2024-01-07T22:49:54.259Z,7.06
2024-01-07T22:52:24.871Z,7.08
2024-01-07T22:54:53.733Z,7.10
2024-01-07T22:57:22.092Z,7.00
2024-01-07T22:59:52.835Z,6.89
2024-01-07T23:02:21.416Z,6.71
2024-01-07T23:04:49.974Z,6.63
2024-01-07T23:07:18.495Z,6.60
2024-01-07T23:09:46.899Z,6.60
2024-01-07T23:12:15.326Z,6.58
2024-01-07T23:14:43.851Z,6.60
2024-01-07T23:17:13.865Z,6.62
2024-01-07T23:19:42.334Z,6.63
2024-01-07T23:22:10.703Z,6.64
2024-01-07T23:24:40.499Z,6.69
2024-01-07T23:27:09.016Z,6.73
2024-01-07T23:29:37.419Z,6.76
2024-01-07T23:32:06.556Z,6.82
2024-01-07T23:34:38.569Z,6.85
2024-01-07T23:37:07.125Z,6.88
2024-01-07T23:39:37.050Z,6.91
2024-01-07T23:42:05.860Z,6.89
2024-01-07T23:44:34.288Z,6.88
2024-01-07T23:47:02.711Z,6.85
2024-01-07T23:49:31.251Z,6.85
2024-01-07T23:52:01.044Z,6.85
2024-01-07T23:54:30.042Z,6.83
2024-01-07T23:56:58.792Z,6.83
2024-01-07T23:59:27.359Z,6.79
